Time;durP1;ratioP1;P1;durP2;ratioP2;P2;SDS_P1;SDS_P2;PMS_P1;PMS_P2;Temp;Humidity;BMP_temperature;BMP_pressure;BME280_temperature;BME280_humidity;BME280_pressure;Samples;Min_cycle;Max_cycle;Signal;HPM_P1;HPM_P2
2023/02/21 02:16:11;;;;;;;45.00;30.10;;;;;;;10.93;79.33;99995.78;5004389;28;20084;-79
2023/02/21 02:18:37;;;;;;;46.65;31.60;;;;;;;10.94;79.33;99988.69;5010348;28;20060;-79
2023/02/21 02:21:22;;;;;;;47.33;31.80;;;;;;;10.92;79.03;100003.75;5010895;28;20046;-79
2023/02/21 02:24:10;;;;;;;46.30;29.45;;;;;;;10.93;79.13;99995.78;5010307;28;20053;-80
2023/02/21 02:26:55;;;;;;;47.00;31.33;;;;;;;10.95;79.49;99987.75;5009690;28;20057;-79
2023/02/21 02:29:49;;;;;;;45.90;30.33;;;;;;;10.91;78.19;99996.75;5007724;28;20050;-79
2023/02/21 02:32:36;;;;;;;45.55;30.45;;;;;;;10.92;78.53;99993.22;5006860;28;20052;-80
2023/02/21 02:35:16;;;;;;;45.55;30.05;;;;;;;10.94;78.57;100004.50;5009819;28;20050;-79
2023/02/21 02:38:01;;;;;;;47.90;30.88;;;;;;;10.93;78.45;100000.16;5003170;28;20046;-79
2023/02/21 02:40:56;;;;;;;44.95;28.67;;;;;;;10.93;78.55;100001.03;5010264;28;20581;-80
2023/02/21 02:44:09;;;;;;;46.03;31.23;;;;;;;10.93;78.22;99994.91;5007511;28;20085;-79
2023/02/21 02:46:40;;;;;;;45.55;31.02;;;;;;;10.98;79.05;99990.22;4957293;28;20050;-80
2023/02/21 02:49:18;;;;;;;44.42;31.10;;;;;;;10.95;78.72;100003.56;5011727;28;20457;-79
2023/02/21 02:51:45;;;;;;;42.90;30.60;;;;;;;10.98;79.34;99989.41;5007073;28;20062;-79
2023/02/21 02:54:11;;;;;;;43.20;29.95;;;;;;;10.96;79.21;99994.75;5013917;28;20406;-79
2023/02/21 02:56:38;;;;;;;45.78;31.50;;;;;;;10.96;78.91;99997.38;5012901;28;20056;-79
2023/02/21 02:59:16;;;;;;;51.97;33.63;;;;;;;10.92;78.72;99995.84;5013434;28;20469;-79
2023/02/21 03:01:52;;;;;;;49.70;33.35;;;;;;;10.90;78.75;99995.94;5006836;28;20092;-79
2023/02/21 03:04:34;;;;;;;42.50;31.20;;;;;;;10.90;78.85;99980.13;5009976;28;20066;-80
2023/02/21 03:07:15;;;;;;;48.75;31.13;;;;;;;10.93;79.25;99998.41;5012929;28;20050;-79
2023/02/21 03:10:06;;;;;;;47.65;31.25;;;;;;;10.94;79.23;99996.59;5013582;28;20057;-79
2023/02/21 03:12:35;;;;;;;44.33;29.70;;;;;;;10.95;79.25;100003.56;5013407;28;20483;-79
2023/02/21 03:15:10;;;;;;;44.78;29.10;;;;;;;10.94;78.86;100013.25;5013120;28;20050;-79
2023/02/21 03:17:41;;;;;;;50.88;31.70;;;;;;;10.95;79.04;100012.31;5005236;28;20556;-79
2023/02/21 03:20:12;;;;;;;49.70;31.15;;;;;;;10.97;79.29;100016.66;5013375;28;20046;-79
2023/02/21 03:22:41;;;;;;;48.63;32.20;;;;;;;10.99;79.57;100014.81;4997167;28;20487;-79
2023/02/21 03:25:08;;;;;;;46.08;30.60;;;;;;;10.98;79.48;100016.56;5011370;28;20056;-79
2023/02/21 03:27:36;;;;;;;50.30;31.77;;;;;;;10.99;79.29;100027.97;5012905;28;20514;-79
2023/02/21 03:30:06;;;;;;;45.88;31.10;;;;;;;10.99;79.45;100015.63;5013027;28;20141;-79
2023/02/21 03:32:37;;;;;;;50.63;32.75;;;;;;;10.99;79.05;100014.81;5013066;28;20046;-79
2023/02/21 03:35:05;;;;;;;52.35;33.55;;;;;;;10.99;79.18;100012.16;5012481;28;20115;-79
2023/02/21 03:37:38;;;;;;;55.00;31.25;;;;;;;10.99;78.95;100012.16;5012645;28;20050;-79
2023/02/21 03:40:12;;;;;;;49.30;32.22;;;;;;;10.99;79.05;100020.06;5013214;28;20050;-80
2023/02/21 03:42:38;;;;;;;47.05;30.27;;;;;;;11.00;79.18;100021.75;5005504;28;20056;-80
2023/02/21 03:45:05;;;;;;;51.55;32.45;;;;;;;10.99;79.32;100028.81;5012456;28;20065;-79
2023/02/21 03:47:32;;;;;;;52.55;32.17;;;;;;;11.00;79.31;100029.66;5012357;28;20089;-79
2023/02/21 03:49:58;;;;;;;49.50;31.48;;;;;;;11.01;79.34;100024.31;5012725;28;20050;-79
2023/02/21 03:52:25;;;;;;;50.92;33.08;;;;;;;11.02;79.39;100035.69;5012786;28;20050;-79
2023/02/21 03:54:51;;;;;;;45.97;30.17;;;;;;;11.01;79.36;100032.22;5012409;28;20521;-80
2023/02/21 03:57:18;;;;;;;47.25;30.88;;;;;;;11.02;79.32;100022.50;5012252;28;20137;-79
2023/02/21 03:59:45;;;;;;;49.17;29.98;;;;;;;11.03;79.54;100032.13;5012230;28;20089;-79
2023/02/21 04:02:11;;;;;;;51.80;30.90;;;;;;;11.04;79.28;100031.19;5011966;28;20062;-80
2023/02/21 04:04:38;;;;;;;49.03;32.70;;;;;;;11.05;79.44;100027.63;5012351;28;20136;-80
2023/02/21 04:07:04;;;;;;;50.70;33.15;;;;;;;11.04;79.18;100033.84;5006187;28;20141;-80
2023/02/21 04:09:31;;;;;;;50.58;32.33;;;;;;;11.04;79.37;100031.19;5012565;28;20487;-80
2023/02/21 04:11:58;;;;;;;53.08;34.25;;;;;;;11.04;79.20;100036.47;5012355;28;20089;-80
2023/02/21 04:14:24;;;;;;;53.58;33.22;;;;;;;11.04;79.31;100032.06;5012316;28;20050;-80
2023/02/21 04:16:51;;;;;;;51.33;31.95;;;;;;;11.05;79.45;100039.03;5011257;28;20061;-79
2023/02/21 04:19:17;;;;;;;48.03;31.38;;;;;;;11.05;79.35;100035.53;5008521;28;20081;-80
2023/02/21 04:21:44;;;;;;;50.65;32.53;;;;;;;11.06;79.42;100034.59;5012276;28;20057;-79
2023/02/21 04:24:10;;;;;;;48.88;31.08;;;;;;;11.06;79.40;100038.06;5012200;28;20412;-80
2023/02/21 04:26:37;;;;;;;49.10;30.27;;;;;;;11.08;79.55;100045.91;5002202;28;20053;-80
2023/02/21 04:29:03;;;;;;;50.45;32.08;;;;;;;11.08;79.31;100036.22;5011994;28;20091;-79
2023/02/21 04:31:31;;;;;;;56.08;33.72;;;;;;;11.08;79.19;100045.91;5011891;28;20188;-80
2023/02/21 04:33:58;;;;;;;53.80;33.25;;;;;;;11.07;79.42;100045.03;5011811;28;20108;-80
2023/02/21 04:36:37;;;;;;;47.78;29.80;;;;;;;11.09;79.27;100047.59;5011270;28;20054;-79
2023/02/21 04:39:05;;;;;;;50.70;31.33;;;;;;;11.10;79.09;100053.72;5011743;28;20120;-80
2023/02/21 04:41:33;;;;;;;51.97;31.92;;;;;;;11.10;79.33;100045.81;5010176;28;20415;-79
2023/02/21 04:43:59;;;;;;;52.45;33.65;;;;;;;11.12;79.36;100049.22;5011896;28;20048;-79
2023/02/21 04:46:26;;;;;;;49.05;31.02;;;;;;;11.10;79.39;100036.13;5011259;28;20071;-79
2023/02/21 04:48:53;;;;;;;51.83;32.20;;;;;;;11.12;79.37;100039.53;5011306;28;20046;-79
2023/02/21 04:51:22;;;;;;;48.83;32.45;;;;;;;11.10;79.21;100035.28;5011822;28;20124;-79
2023/02/21 04:53:50;;;;;;;53.83;32.03;;;;;;;11.10;79.18;100037.91;5011615;28;20471;-79
2023/02/21 04:56:19;;;;;;;57.33;34.83;;;;;;;11.10;79.07;100037.91;5011497;28;20057;-79
2023/02/21 04:58:47;;;;;;;53.17;31.98;;;;;;;11.08;79.14;100033.59;5010972;28;20058;-79
2023/02/21 05:01:15;;;;;;;50.95;32.00;;;;;;;11.08;79.09;100030.97;5011722;28;20046;-79
2023/02/21 05:03:43;;;;;;;55.00;33.65;;;;;;;11.07;79.23;100031.88;5003336;28;20049;-79
2023/02/21 05:08:50;;;;;;;54.63;32.58;;;;;;;11.05;79.24;100025.00;5062022;23;20064;-79
2023/02/21 05:11:19;;;;;;;54.47;34.30;;;;;;;11.03;79.18;100027.69;5011273;28;20061;-79
2023/02/21 05:13:46;;;;;;;55.15;32.28;;;;;;;11.02;79.21;100023.38;5011061;28;20049;-78
2023/02/21 05:16:13;;;;;;;50.15;32.97;;;;;;;11.02;79.33;100019.88;5010801;28;20045;-78
2023/02/21 05:18:44;;;;;;;52.80;32.55;;;;;;;10.98;78.89;100024.47;5010669;28;20065;-79
2023/02/21 05:21:11;;;;;;;54.60;32.60;;;;;;;10.98;79.14;100016.56;5011168;28;20045;-79
2023/02/21 05:23:39;;;;;;;50.75;31.95;;;;;;;10.98;79.43;100015.75;5011091;28;20124;-79
2023/02/21 05:26:12;;;;;;;48.10;32.40;;;;;;;10.95;79.17;100014.97;5010508;28;20092;-78
2023/02/21 05:28:39;;;;;;;52.80;31.77;;;;;;;10.95;79.30;100007.06;4994384;28;20054;-79
2023/02/21 05:31:07;;;;;;;55.78;31.05;;;;;;;10.94;79.35;100017.66;5011283;28;20056;-78
2023/02/21 05:33:33;;;;;;;55.50;32.55;;;;;;;10.94;79.35;100008.00;5011077;28;20054;-81
2023/02/21 05:36:00;;;;;;;57.30;32.35;;;;;;;10.93;79.53;100008.06;5004879;28;20241;-78
2023/02/21 05:38:27;;;;;;;55.67;32.05;;;;;;;10.92;79.64;100009.03;5010533;28;20080;-79
2023/02/21 05:40:53;;;;;;;50.33;32.08;;;;;;;10.92;79.45;100007.22;5010936;28;20129;-79
2023/02/21 05:43:20;;;;;;;59.08;34.33;;;;;;;10.91;79.48;100012.56;5010699;28;20061;-78
2023/02/21 05:45:46;;;;;;;55.63;33.42;;;;;;;10.91;79.52;100017.81;5010573;28;20050;-79
2023/02/21 05:48:13;;;;;;;53.28;33.08;;;;;;;10.90;79.64;100013.50;5010561;28;20108;-79
2023/02/21 05:50:40;;;;;;;51.25;30.60;;;;;;;10.90;79.73;100010.88;5010672;28;20136;-79
2023/02/21 05:53:09;;;;;;;57.83;34.88;;;;;;;10.89;80.12;100010.03;5010686;28;20085;-78
2023/02/21 05:55:36;;;;;;;61.28;34.60;;;;;;;10.90;79.70;100010.88;5002320;28;20115;-79
2023/02/21 05:58:03;;;;;;;59.03;34.47;;;;;;;10.91;79.77;100015.19;5010565;28;20108;-78
2023/02/21 06:00:30;;;;;;;57.20;35.13;;;;;;;10.90;79.62;100013.50;5010795;28;20058;-79
2023/02/21 06:02:56;;;;;;;57.67;33.67;;;;;;;10.91;79.57;100016.06;5011006;28;20054;-78
2023/02/21 06:05:23;;;;;;;60.72;34.75;;;;;;;10.91;79.75;100023.09;5007509;28;20046;-78
2023/02/21 06:07:50;;;;;;;55.05;33.88;;;;;;;10.92;79.89;100022.19;5010230;28;20093;-79
2023/02/21 06:10:18;;;;;;;61.45;34.85;;;;;;;10.92;79.85;100014.28;5010414;28;20056;-79
2023/02/21 06:12:45;;;;;;;60.38;36.03;;;;;;;10.92;79.68;100019.56;5010758;28;20057;-78
2023/02/21 06:15:12;;;;;;;61.55;36.65;;;;;;;10.91;79.69;100018.69;5010164;28;20145;-80
2023/02/21 06:17:39;;;;;;;66.15;35.80;;;;;;;10.92;79.58;100022.19;5010127;28;20410;-78
2023/02/21 06:20:13;;;;;;;66.00;36.83;;;;;;;10.88;79.37;100018.00;5005501;28;20105;-78
2023/02/21 06:22:40;;;;;;;62.47;36.10;;;;;;;10.89;79.67;100014.44;5010650;28;20054;-79
2023/02/21 06:25:07;;;;;;;58.22;35.00;;;;;;;10.88;79.63;100015.38;5013055;28;20115;-79
2023/02/21 06:27:33;;;;;;;62.67;34.97;;;;;;;10.88;79.55;100013.56;5013989;28;20495;-79
2023/02/21 06:30:01;;;;;;;66.90;36.22;;;;;;;10.86;79.62;100023.38;5014543;28;20073;-80
2023/02/21 06:32:28;;;;;;;61.28;34.92;;;;;;;10.86;79.63;100025.13;5014104;28;20072;-79
2023/02/21 06:34:54;;;;;;;63.53;34.67;;;;;;;10.86;79.63;100014.59;5013625;28;20053;-80
2023/02/21 06:37:21;;;;;;;62.28;35.65;;;;;;;10.86;79.74;100011.97;5010732;28;20057;-79
2023/02/21 06:39:47;;;;;;;59.53;33.13;;;;;;;10.87;79.97;100016.31;5014055;28;20046;-79
2023/02/21 06:42:15;;;;;;;55.85;32.97;;;;;;;10.86;79.87;100015.47;5009633;28;20050;-78
2023/02/21 06:44:47;;;;;;;57.13;34.33;;;;;;;10.84;79.47;100019.94;5005549;28;20146;-78
2023/02/21 06:47:15;;;;;;;60.58;33.88;;;;;;;10.86;79.78;100011.97;5011198;28;20120;-78
2023/02/21 06:49:42;;;;;;;62.55;34.92;;;;;;;10.85;79.59;100020.81;5013230;28;20046;-78
2023/02/21 06:52:09;;;;;;;60.03;32.58;;;;;;;10.84;79.53;100016.47;5008327;28;20069;-78
2023/02/21 06:54:36;;;;;;;57.20;33.83;;;;;;;10.82;79.82;100017.41;5013263;28;20062;-78
2023/02/21 06:57:04;;;;;;;58.47;33.00;;;;;;;10.81;79.67;100013.06;5013011;28;20050;-78
2023/02/21 06:59:31;;;;;;;58.13;33.22;;;;;;;10.80;79.82;100013.13;5013217;28;20050;-78
2023/02/21 07:01:58;;;;;;;52.70;30.83;;;;;;;10.79;79.76;100016.72;5012859;28;20560;-78
2023/02/21 07:04:24;;;;;;;58.40;31.88;;;;;;;10.77;80.00;100016.78;5013277;28;20085;-78
2023/02/21 07:06:51;;;;;;;56.17;31.58;;;;;;;10.76;79.64;100015.09;5012833;28;20457;-78
2023/02/21 07:09:18;;;;;;;51.42;29.50;;;;;;;10.76;79.90;100023.00;5012175;28;20426;-79
2023/02/21 07:11:45;;;;;;;52.50;30.02;;;;;;;10.76;79.92;100025.63;5011793;28;20140;-79
2023/02/21 07:14:13;;;;;;;57.05;30.45;;;;;;;10.74;79.93;100022.25;5013308;28;20510;-79
2023/02/21 07:16:39;;;;;;;51.70;30.15;;;;;;;10.74;79.93;100027.50;5012329;28;20532;-78
2023/02/21 07:19:06;;;;;;;56.08;30.17;;;;;;;10.74;80.12;100030.16;5013144;28;20145;-79
2023/02/21 07:21:32;;;;;;;51.85;28.63;;;;;;;10.77;80.22;100029.13;5011927;28;20051;-79
2023/02/21 07:23:59;;;;;;;50.85;28.83;;;;;;;10.76;80.10;100035.34;5013294;28;20050;-79
2023/02/21 07:26:25;;;;;;;50.25;27.55;;;;;;;10.76;80.10;100036.16;5012816;28;20050;-79
2023/02/21 07:28:52;;;;;;;51.58;29.98;;;;;;;10.74;80.22;100030.16;5012779;28;20053;-79
2023/02/21 07:31:19;;;;;;;49.38;27.58;;;;;;;10.75;80.06;100038.88;5012998;28;20058;-79
2023/02/21 07:33:46;;;;;;;45.17;26.40;;;;;;;10.75;80.15;100038.88;5012868;28;20054;-79
2023/02/21 07:36:12;;;;;;;50.60;27.33;;;;;;;10.74;80.23;100043.31;5011631;28;20103;-79
2023/02/21 07:38:39;;;;;;;43.83;25.45;;;;;;;10.74;80.16;100043.31;5012791;28;20097;-79
2023/02/21 07:41:05;;;;;;;45.25;26.85;;;;;;;10.75;80.33;100038.88;5012990;28;20045;-79
2023/02/21 07:43:32;;;;;;;48.58;25.65;;;;;;;10.74;80.36;100035.41;5012820;28;20049;-79
2023/02/21 07:45:59;;;;;;;47.65;26.27;;;;;;;10.76;80.17;100037.97;5005885;28;20057;-78
2023/02/21 07:48:26;;;;;;;40.22;24.63;;;;;;;10.76;80.29;100044.06;5012209;28;20060;-79
2023/02/21 07:50:52;;;;;;;38.17;22.83;;;;;;;10.77;80.20;100040.50;5012593;28;20050;-78
2023/02/21 07:53:19;;;;;;;39.13;22.52;;;;;;;10.77;80.39;100048.38;5012032;28;20514;-79
2023/02/21 07:55:46;;;;;;;40.72;23.30;;;;;;;10.77;80.29;100042.28;5012147;28;20061;-79
2023/02/21 07:58:12;;;;;;;39.13;22.77;;;;;;;10.78;80.31;100050.13;5012159;28;20050;-79
2023/02/21 08:00:39;;;;;;;39.63;23.75;;;;;;;10.79;80.37;100049.19;5012434;28;20223;-79
2023/02/21 08:03:06;;;;;;;36.70;21.92;;;;;;;10.79;80.28;100048.31;5012603;28;20152;-79
2023/02/21 08:05:33;;;;;;;37.88;22.25;;;;;;;10.77;80.17;100043.13;5012161;28;20054;-79
2023/02/21 08:07:59;;;;;;;38.33;22.52;;;;;;;10.76;80.23;100044.06;5012117;28;20064;-79
2023/02/21 08:10:26;;;;;;;38.28;23.05;;;;;;;10.74;80.12;100043.31;5012413;28;20054;-79
2023/02/21 08:12:53;;;;;;;35.88;21.58;;;;;;;10.74;80.43;100042.44;5012284;28;20062;-79
2023/02/21 08:15:20;;;;;;;37.67;21.08;;;;;;;10.73;80.54;100046.03;5011826;28;20085;-79
2023/02/21 08:17:48;;;;;;;32.70;20.70;;;;;;;10.73;80.70;100046.03;5011973;28;20141;-79
2023/02/21 08:20:15;;;;;;;36.40;21.23;;;;;;;10.74;80.79;100056.47;5004559;28;20129;-78
2023/02/21 08:22:41;;;;;;;33.05;20.17;;;;;;;10.77;80.93;100053.66;5012190;28;20054;-79
2023/02/21 08:25:10;;;;;;;34.83;21.45;;;;;;;10.78;80.97;100058.00;5011893;28;20127;-79
2023/02/21 08:27:41;;;;;;;36.92;22.63;;;;;;;10.79;80.73;100057.06;5003811;28;20052;-79
2023/02/21 08:30:10;;;;;;;34.33;21.20;;;;;;;10.82;80.63;100050.78;5012430;28;20618;-79
2023/02/21 08:32:37;;;;;;;35.55;20.27;;;;;;;10.85;80.72;100057.69;5012036;28;20085;-79
2023/02/21 08:35:05;;;;;;;33.22;20.60;;;;;;;10.86;80.79;100060.22;5011592;28;20050;-79
2023/02/21 08:37:35;;;;;;;34.45;21.67;;;;;;;10.86;80.58;100064.63;5011329;28;20046;-78
2023/02/21 08:40:02;;;;;;;38.05;21.77;;;;;;;10.88;80.77;100057.53;5011962;28;20064;-79
2023/02/21 08:42:29;;;;;;;38.67;23.05;;;;;;;10.87;80.71;100061.94;5010480;28;20050;-79
2023/02/21 08:44:56;;;;;;;39.13;22.40;;;;;;;10.88;80.49;100070.69;5011508;28;20073;-79
2023/02/21 08:47:23;;;;;;;40.85;22.38;;;;;;;10.87;80.64;100075.09;5010659;28;20057;-79
2023/02/21 08:49:49;;;;;;;42.72;23.85;;;;;;;10.88;80.72;100065.41;5011375;28;20073;-78
2023/02/21 08:52:18;;;;;;;38.72;22.88;;;;;;;10.88;80.82;100071.53;5011297;28;20074;-79
2023/02/21 08:54:44;;;;;;;38.67;23.13;;;;;;;10.90;80.85;100068.81;5003011;28;20135;-79
2023/02/21 08:57:12;;;;;;;39.22;23.00;;;;;;;10.91;80.83;100075.78;5010873;28;20057;-78
2023/02/21 08:59:41;;;;;;;42.72;24.10;;;;;;;10.92;80.75;100073.06;5011268;28;20082;-77
2023/02/21 09:02:31;;;;;;;44.58;25.73;;;;;;;10.91;80.16;100083.66;5011369;28;20050;-77
2023/02/21 09:05:23;;;;;;;42.58;24.85;;;;;;;10.91;79.96;100086.31;5010907;28;20138;-78
2023/02/21 09:07:53;;;;;;;48.72;26.60;;;;;;;10.93;80.42;100093.22;5011097;28;20061;-78
2023/02/21 09:10:21;;;;;;;49.65;26.27;;;;;;;10.93;80.57;100076.56;5011172;28;20056;-78
2023/02/21 09:12:47;;;;;;;41.45;26.10;;;;;;;10.93;80.98;100085.31;5007091;28;20058;-78
2023/02/21 09:15:15;;;;;;;48.42;26.48;;;;;;;10.94;80.96;100080.88;5004182;28;20046;-78
2023/02/21 09:17:42;;;;;;;52.70;28.15;;;;;;;10.96;80.81;100079.03;5006383;28;20499;-78
2023/02/21 09:20:14;;;;;;;57.42;27.90;;;;;;;10.96;80.60;100079.03;5011310;28;20046;-78
2023/02/21 09:22:44;;;;;;;53.67;27.85;;;;;;;10.97;80.37;100075.47;5011339;28;20414;-78
2023/02/21 09:25:12;;;;;;;51.92;26.90;;;;;;;11.00;80.83;100071.81;5010774;28;20060;-78
2023/02/21 09:27:39;;;;;;;52.28;29.05;;;;;;;11.01;81.20;100073.50;5010734;28;20053;-78
2023/02/21 09:30:10;;;;;;;47.35;25.88;;;;;;;11.02;80.72;100073.41;5010932;28;20046;-78
2023/02/21 09:32:38;;;;;;;45.50;27.00;;;;;;;11.03;80.61;100064.56;5011058;28;20057;-78
2023/02/21 09:35:06;;;;;;;44.70;25.00;;;;;;;11.04;80.54;100060.19;5010646;28;20140;-78
2023/02/21 09:37:35;;;;;;;49.05;26.45;;;;;;;11.05;80.73;100062.72;5010750;28;20054;-79
2023/02/21 09:40:03;;;;;;;45.75;25.10;;;;;;;11.05;80.95;100062.72;4993609;28;20050;-79
2023/02/21 09:42:31;;;;;;;50.65;26.45;;;;;;;11.06;80.78;100063.56;5010975;28;20498;-78
2023/02/21 09:44:58;;;;;;;47.67;26.52;;;;;;;11.08;80.47;100065.22;5010386;28;20549;-78
2023/02/21 09:47:32;;;;;;;45.05;26.17;;;;;;;11.07;80.51;100065.28;5010780;28;20077;-79
2023/02/21 09:50:05;;;;;;;47.83;26.20;;;;;;;11.11;80.92;100065.97;5010840;28;20483;-79
2023/02/21 09:52:35;;;;;;;46.72;25.70;;;;;;;11.14;81.21;100071.91;5011254;28;20054;-78
2023/02/21 09:55:25;;;;;;;46.70;26.63;;;;;;;11.14;80.79;100071.06;5010315;28;20098;-78
2023/02/21 09:57:55;;;;;;;46.83;24.60;;;;;;;11.23;81.38;100075.84;5000018;28;20054;-79
2023/02/21 10:00:34;;;;;;;49.45;28.10;;;;;;;11.24;80.49;100080.16;5014621;28;20049;-78
2023/02/21 10:03:18;;;;;;;54.55;28.42;;;;;;;11.27;80.31;100079.13;5014933;28;20057;-78
2023/02/21 10:05:52;;;;;;;49.20;28.00;;;;;;;11.29;80.19;100083.38;5014250;28;20053;-78
2023/02/21 10:08:35;;;;;;;50.35;26.90;;;;;;;11.27;79.76;100082.63;5014079;28;20589;-78
2023/02/21 10:11:18;;;;;;;49.90;26.65;;;;;;;11.27;79.54;100081.78;5014738;28;20144;-78
2023/02/21 10:13:47;;;;;;;50.60;27.02;;;;;;;11.30;80.38;100076.34;5014615;28;20046;-77
2023/02/21 10:16:30;;;;;;;52.08;27.98;;;;;;;11.27;79.80;100082.63;5014070;28;20045;-78
2023/02/21 10:19:22;;;;;;;56.22;28.60;;;;;;;11.25;79.10;100078.38;5014441;28;20060;-78
2023/02/21 10:21:49;;;;;;;51.33;27.40;;;;;;;11.30;80.31;100081.63;4997086;28;20132;-78
2023/02/21 10:24:20;;;;;;;52.22;28.27;;;;;;;11.29;80.24;100086.03;5014455;28;20054;-78
2023/02/21 10:27:11;;;;;;;52.38;27.50;;;;;;;11.28;79.89;100081.69;4996090;28;20144;-78
2023/02/21 10:29:56;;;;;;;46.28;26.17;;;;;;;11.31;80.35;100083.31;5004712;28;20073;-79
2023/02/21 10:32:24;;;;;;;48.30;26.98;;;;;;;11.38;80.82;100089.09;5022066;28;20046;-78
2023/02/21 10:34:53;;;;;;;54.88;28.15;;;;;;;11.41;80.88;100088.94;4998243;28;20434;-78
2023/02/21 10:37:23;;;;;;;54.85;29.20;;;;;;;11.41;80.13;100087.16;5010296;28;20599;-78
2023/02/21 10:39:58;;;;;;;51.97;28.77;;;;;;;11.42;79.87;100085.34;5011248;28;20127;-78
2023/02/21 10:42:36;;;;;;;57.53;31.40;;;;;;;11.43;79.50;100087.03;5013727;28;20111;-78
2023/02/21 10:45:05;;;;;;;49.70;27.50;;;;;;;11.44;80.23;100091.41;5013329;28;20053;-78
2023/02/21 10:47:39;;;;;;;57.20;28.95;;;;;;;11.41;79.45;100092.44;4990872;28;20881;-78
2023/02/21 10:50:10;;;;;;;53.03;28.25;;;;;;;11.44;80.20;100099.31;5013632;28;20245;-78
2023/02/21 10:52:49;;;;;;;49.78;28.20;;;;;;;11.41;79.39;100104.75;4996693;28;20477;-78
2023/02/21 10:55:20;;;;;;;55.55;30.17;;;;;;;11.43;79.52;100094.94;5013417;28;20128;-78
2023/02/21 10:58:06;;;;;;;52.13;28.35;;;;;;;11.40;79.74;100101.25;5013564;28;20100;-78
2023/02/21 11:00:37;;;;;;;53.58;28.13;;;;;;;11.42;80.26;100095.91;5014014;28;20560;-78
2023/02/21 11:03:26;;;;;;;50.92;28.58;;;;;;;11.43;80.06;100105.50;4996516;28;20407;-78
2023/02/21 11:05:58;;;;;;;49.28;28.15;;;;;;;11.45;80.53;100101.84;4993297;28;20053;-78
2023/02/21 11:08:43;;;;;;;44.67;25.92;;;;;;;11.45;80.29;100095.75;4984914;23;20050;-81
2023/02/21 11:11:10;;;;;;;49.45;28.85;;;;;;;11.53;81.34;100088.25;4986020;28;20050;-82
2023/02/21 11:13:36;;;;;;;49.45;27.90;;;;;;;11.58;81.21;100080.94;4993276;28;20137;-82
2023/02/21 11:16:31;;;;;;;52.55;27.52;;;;;;;11.60;80.27;100086.13;4993255;28;20463;-81
2023/02/21 11:19:05;;;;;;;54.35;27.38;;;;;;;11.68;80.25;100093.59;4989762;28;20145;-82
2023/02/21 11:21:32;;;;;;;54.83;29.23;;;;;;;11.72;80.85;100085.44;4991889;28;20054;-82
2023/02/21 11:24:03;;;;;;;53.08;28.98;;;;;;;11.75;80.22;100088.81;4993183;28;20054;-81
2023/02/21 11:26:37;;;;;;;53.08;28.92;;;;;;;11.78;79.74;100089.50;4993062;28;20058;-81
2023/02/21 11:29:15;;;;;;;54.05;28.13;;;;;;;11.78;79.11;100094.75;4991670;28;20050;-81
2023/02/21 11:31:43;;;;;;;54.20;28.58;;;;;;;11.80;79.46;100090.25;4993116;28;20054;-81
2023/02/21 11:34:12;;;;;;;50.30;27.15;;;;;;;11.76;79.15;100079.97;4992708;28;20216;-81
2023/02/21 11:36:42;;;;;;;54.90;27.83;;;;;;;11.72;79.07;100085.44;4992411;28;20065;-81
2023/02/21 11:39:26;;;;;;;53.28;27.63;;;;;;;11.68;78.93;100075.13;4992792;28;20524;-81
2023/02/21 11:41:55;;;;;;;46.45;24.55;;;;;;;11.70;79.77;100075.91;4993037;28;20112;-81
2023/02/21 11:44:34;;;;;;;49.05;26.58;;;;;;;11.68;79.58;100077.78;4991493;28;20054;-81
2023/02/21 11:47:15;;;;;;;47.83;25.55;;;;;;;11.71;80.20;100069.69;4992204;28;20128;-81
2023/02/21 11:49:52;;;;;;;46.55;25.60;;;;;;;11.69;79.57;100066.28;4992687;28;20046;-82
2023/02/21 11:52:30;;;;;;;52.40;26.67;;;;;;;11.71;79.33;100074.97;4991534;28;20459;-82
2023/02/21 11:54:57;;;;;;;51.92;26.30;;;;;;;11.74;79.93;100069.53;4992006;28;20062;-81
2023/02/21 11:57:48;;;;;;;49.35;27.88;;;;;;;11.70;78.42;100065.38;4992282;28;20460;-82
2023/02/21 12:01:00;;;;;;;48.53;25.88;;;;;;;11.68;78.85;100064.59;4990508;28;20042;-81
2023/02/21 12:03:48;;;;;;;43.97;24.42;;;;;;;11.68;78.78;100054.03;4988650;28;20117;-82
2023/02/21 12:06:20;;;;;;;46.83;25.08;;;;;;;11.70;79.08;100052.19;4972753;28;20069;-81
2023/02/21 12:09:15;;;;;;;48.35;26.70;;;;;;;11.69;79.11;100053.09;4981068;28;20058;-82
2023/02/21 12:12:19;;;;;;;48.13;24.35;;;;;;;11.68;78.69;100056.69;5004443;28;21044;-81
2023/02/21 12:15:04;;;;;;;42.15;22.95;;;;;;;11.65;78.69;100060.34;5011596;28;20053;-81
2023/02/21 12:17:47;;;;;;;45.35;25.65;;;;;;;11.64;78.75;100053.38;5011196;28;20064;-81
2023/02/21 12:20:26;;;;;;;43.90;23.80;;;;;;;11.61;78.69;100056.19;5011948;28;20069;-82
2023/02/21 12:23:07;;;;;;;46.42;23.73;;;;;;;11.57;78.78;100058.16;5010987;28;20049;-82
2023/02/21 12:26:06;;;;;;;43.05;23.55;;;;;;;11.52;78.66;100054.94;5011286;28;20133;-82
2023/02/21 12:29:10;;;;;;;42.55;23.55;;;;;;;11.49;78.78;100043.69;5011257;28;20112;-81
2023/02/21 12:31:48;;;;;;;40.65;22.52;;;;;;;11.48;78.93;100053.41;5011378;28;20057;-81
2023/02/21 12:34:27;;;;;;;44.35;22.63;;;;;;;11.47;79.55;100046.41;5007527;28;20175;-81
2023/02/21 12:37:12;;;;;;;41.25;23.08;;;;;;;11.42;78.92;100045.81;5010616;28;20050;-81
2023/02/21 12:39:48;;;;;;;42.15;23.27;;;;;;;11.43;79.63;100044.88;5011384;28;20054;-82
2023/02/21 12:42:37;;;;;;;39.17;21.38;;;;;;;11.41;79.66;100037.06;5011094;28;20045;-81
2023/02/21 12:45:22;;;;;;;40.78;22.30;;;;;;;11.43;80.10;100039.59;5011126;28;20259;-81
2023/02/21 12:47:59;;;;;;;36.50;21.90;;;;;;;11.41;79.73;100044.13;5003215;28;20061;-81
2023/02/21 12:50:50;;;;;;;43.22;22.52;;;;;;;11.38;79.49;100034.59;5008933;28;20058;-81
2023/02/21 12:53:29;;;;;;;38.42;21.88;;;;;;;11.39;79.61;100033.66;4997639;28;20045;-81
2023/02/21 12:56:09;;;;;;;35.35;20.25;;;;;;;11.41;79.86;100030.94;4995676;28;20504;-81
2023/02/21 12:58:49;;;;;;;41.28;22.35;;;;;;;11.44;80.02;100030.78;4989512;28;20084;-81
2023/02/21 13:01:33;;;;;;;36.33;22.15;;;;;;;11.45;79.83;100037.75;4989973;28;20575;-81
2023/02/21 13:04:14;;;;;;;38.55;22.38;;;;;;;11.48;79.76;100027.03;4985198;28;20132;-81
2023/02/21 13:06:52;;;;;;;34.35;20.67;;;;;;;11.52;80.08;100036.47;4998810;28;20046;-81
2023/02/21 13:09:35;;;;;;;32.05;19.45;;;;;;;11.55;80.16;100028.38;5002094;28;20101;-81
2023/02/21 13:12:13;;;;;;;34.95;19.38;;;;;;;11.59;80.19;100029.91;4990190;28;20057;-81
2023/02/21 13:14:46;;;;;;;33.83;20.35;;;;;;;11.64;80.54;100032.28;5004092;28;20049;-80
2023/02/21 13:17:13;;;;;;;;;;;;;;;11.69;79.33;100030.22;5016024;28;20057;-81
2023/02/21 13:20:00;;;;;;;32.05;17.48;;;;;;;11.75;79.21;100030.81;5000760;28;20428;-81
2023/02/21 13:25:55;;;;;;;30.50;16.75;;;;;;;11.81;79.66;100018.09;5011440;28;20046;-81
2023/02/21 13:28:24;;;;;;;33.80;18.57;;;;;;;11.84;79.87;100017.94;5008918;28;20042;-81
2023/02/21 13:30:57;;;;;;;32.90;19.13;;;;;;;11.86;79.97;100021.31;4997568;28;20096;-81
2023/02/21 13:33:28;;;;;;;29.75;17.92;;;;;;;11.88;79.12;100008.06;5011232;28;20066;-81
2023/02/21 13:35:57;;;;;;;36.53;20.58;;;;;;;11.91;79.52;100007.03;5008985;28;20050;-81
2023/02/21 13:38:30;;;;;;;36.53;19.10;;;;;;;11.90;78.78;100006.19;5009196;28;20496;-81
2023/02/21 13:41:15;;;;;;;33.70;18.30;;;;;;;11.84;77.38;100009.16;5000590;28;20401;-81
2023/02/21 13:43:50;;;;;;;29.73;16.45;;;;;;;11.81;77.49;100015.47;4995190;28;20057;-82
2023/02/21 13:46:29;;;;;;;30.23;17.10;;;;;;;11.72;77.21;100010.72;5008845;28;20493;-82
2023/02/21 13:49:33;;;;;;;35.88;17.70;;;;;;;11.63;77.21;100001.59;4995490;28;20140;-81
2023/02/21 13:52:27;;;;;;;26.30;15.25;;;;;;;11.52;77.45;100004.84;5010312;28;20053;-81
2023/02/21 13:55:09;;;;;;;25.95;14.70;;;;;;;11.47;77.60;100009.50;5003151;28;20096;-82